TRA1NS LFML-DTTA
Flight info
| Callsign | TRA1NS |
|---|---|
| Flight time | 1h 17m |
| Altitude | 37000 |
| Route | TINOT UN854 RASPA DCT INKIR DCT ETOIL DCT TABOT M739 NIVAB UM739 DOPEL UM858 TBK DCT KEMIR UA411 TUC |
| Aircraft | A321/M-SDE3FGHIRWY/LB1 |
Departure
| Time | 2026-04-28 18:57 |
|---|---|
| Airport | Marseille Provence Airport (LFML) |
Arrival
| Time | 2026-04-28 20:15 |
|---|---|
| Airport | Tunis Carthage International Airport (DTTA) |
| Time | Latitude | Longitude | Altitude | Speed | Heading |
|---|---|---|---|---|---|
| 2026-04-28 18:18 | 43.44155 | 5.21958 | 35 ft | 0 kts | 44° |
| 2026-04-28 18:44 | 43.44145 | 5.21945 | 35 ft | 4 kts | 39° |
| 2026-04-28 18:45 | 43.44123 | 5.21925 | 32 ft | 4 kts | 25° |
| 2026-04-28 18:45 | 43.44098 | 5.21913 | 35 ft | 4 kts | 3° |
| 2026-04-28 18:45 | 43.44073 | 5.21919 | 33 ft | 4 kts | 321° |
| 2026-04-28 18:45 | 43.44068 | 5.21924 | 33 ft | 0 kts | 314° |
| 2026-04-28 18:50 | 43.44070 | 5.21922 | 36 ft | 1 kts | 314° |
| 2026-04-28 18:50 | 43.44087 | 5.21898 | 35 ft | 6 kts | 314° |
| 2026-04-28 18:51 | 43.44114 | 5.21840 | 34 ft | 9 kts | 277° |
| 2026-04-28 18:51 | 43.44078 | 5.21764 | 33 ft | 11 kts | 223° |
| 2026-04-28 18:51 | 43.44020 | 5.21689 | 34 ft | 12 kts | 223° |
| 2026-04-28 18:51 | 43.43955 | 5.21605 | 33 ft | 14 kts | 223° |
| 2026-04-28 18:52 | 43.43918 | 5.21497 | 33 ft | 14 kts | 289° |
| 2026-04-28 18:52 | 43.43984 | 5.21394 | 30 ft | 14 kts | 314° |
| 2026-04-28 18:52 | 43.44060 | 5.21287 | 27 ft | 16 kts | 314° |
| 2026-04-28 18:52 | 43.44138 | 5.21175 | 24 ft | 13 kts | 314° |
| 2026-04-28 18:53 | 43.44208 | 5.21076 | 22 ft | 16 kts | 314° |
| 2026-04-28 18:53 | 43.44282 | 5.20950 | 20 ft | 19 kts | 300° |
| 2026-04-28 18:53 | 43.44352 | 5.20802 | 18 ft | 13 kts | 311° |
| 2026-04-28 18:53 | 43.44415 | 5.20711 | 18 ft | 14 kts | 313° |
| 2026-04-28 18:54 | 43.44486 | 5.20610 | 18 ft | 15 kts | 314° |
| 2026-04-28 18:54 | 43.44561 | 5.20503 | 18 ft | 16 kts | 314° |
| 2026-04-28 18:54 | 43.44640 | 5.20390 | 18 ft | 17 kts | 314° |
| 2026-04-28 18:54 | 43.44726 | 5.20269 | 17 ft | 18 kts | 314° |
| 2026-04-28 18:55 | 43.44815 | 5.20142 | 17 ft | 19 kts | 314° |
| 2026-04-28 18:55 | 43.44877 | 5.20053 | 17 ft | 20 kts | 314° |
| 2026-04-28 18:55 | 43.44975 | 5.19909 | 17 ft | 11 kts | 302° |
| 2026-04-28 18:55 | 43.44968 | 5.19825 | 17 ft | 10 kts | 236° |
| 2026-04-28 18:56 | 43.44907 | 5.19781 | 18 ft | 10 kts | 188° |
| 2026-04-28 18:56 | 43.44847 | 5.19827 | 17 ft | 0 kts | 134° |
| 2026-04-28 18:56 | 43.44843 | 5.19833 | 17 ft | 1 kts | 134° |
| 2026-04-28 18:56 | 43.44826 | 5.19858 | 18 ft | 11 kts | 134° |
| 2026-04-28 18:57 | 43.44577 | 5.20212 | 18 ft | 90 kts | 134° |
| 2026-04-28 18:57 | 43.43981 | 5.21061 | 26 ft | 153 kts | 134° |
| 2026-04-28 18:57 | 43.43165 | 5.22202 | 397 ft | 174 kts | 138° |
| 2026-04-28 18:57 | 43.42232 | 5.23323 | 1045 ft | 179 kts | 146° |
| 2026-04-28 18:58 | 43.41152 | 5.24234 | 1651 ft | 189 kts | 148° |
| 2026-04-28 18:58 | 43.39986 | 5.25228 | 1913 ft | 210 kts | 148° |
| 2026-04-28 18:58 | 43.38651 | 5.26371 | 2214 ft | 235 kts | 148° |
| 2026-04-28 18:58 | 43.37249 | 5.27576 | 2865 ft | 245 kts | 148° |
| 2026-04-28 18:59 | 43.35794 | 5.28832 | 3659 ft | 249 kts | 147° |
| 2026-04-28 18:59 | 43.34311 | 5.30112 | 4438 ft | 255 kts | 147° |
| 2026-04-28 18:59 | 43.32800 | 5.31430 | 5180 ft | 260 kts | 147° |
| 2026-04-28 18:59 | 43.31151 | 5.32485 | 5926 ft | 265 kts | 162° |
| 2026-04-28 19:00 | 43.29315 | 5.32870 | 6649 ft | 271 kts | 178° |
| 2026-04-28 19:00 | 43.27419 | 5.32900 | 7399 ft | 273 kts | 178° |
| 2026-04-28 19:00 | 43.25518 | 5.32936 | 8199 ft | 274 kts | 178° |
| 2026-04-28 19:00 | 43.23602 | 5.32980 | 8942 ft | 278 kts | 179° |
| 2026-04-28 19:01 | 43.21655 | 5.33026 | 9656 ft | 282 kts | 179° |
| 2026-04-28 19:01 | 43.19673 | 5.33076 | 10278 ft | 290 kts | 179° |
| 2026-04-28 19:01 | 43.17577 | 5.33128 | 10455 ft | 312 kts | 179° |
| 2026-04-28 19:01 | 43.15327 | 5.33181 | 10586 ft | 334 kts | 179° |
| 2026-04-28 19:02 | 43.12941 | 5.33234 | 10869 ft | 349 kts | 179° |
| 2026-04-28 19:02 | 43.11327 | 5.33270 | 11245 ft | 352 kts | 179° |
| 2026-04-28 19:02 | 43.08020 | 5.33338 | 12044 ft | 357 kts | 180° |
| 2026-04-28 19:02 | 43.06371 | 5.33371 | 12477 ft | 359 kts | 180° |
| 2026-04-28 19:03 | 43.03862 | 5.33425 | 13070 ft | 363 kts | 180° |
| 2026-04-28 19:03 | 43.01319 | 5.33484 | 13689 ft | 367 kts | 180° |
| 2026-04-28 19:03 | 42.98755 | 5.33462 | 14227 ft | 370 kts | 182° |
| 2026-04-28 19:03 | 42.96171 | 5.33329 | 14784 ft | 373 kts | 184° |
| 2026-04-28 19:04 | 42.93571 | 5.33132 | 15359 ft | 375 kts | 185° |
| 2026-04-28 19:04 | 42.90958 | 5.32917 | 15929 ft | 378 kts | 185° |
| 2026-04-28 19:04 | 42.88328 | 5.32709 | 16491 ft | 380 kts | 185° |
| 2026-04-28 19:04 | 42.85680 | 5.32513 | 17057 ft | 383 kts | 185° |
| 2026-04-28 19:05 | 42.83012 | 5.32331 | 17589 ft | 385 kts | 185° |
| 2026-04-28 19:05 | 42.80320 | 5.32156 | 18111 ft | 388 kts | 185° |
| 2026-04-28 19:05 | 42.77614 | 5.31986 | 18575 ft | 391 kts | 185° |
| 2026-04-28 19:05 | 42.74891 | 5.31816 | 19017 ft | 393 kts | 185° |
| 2026-04-28 19:06 | 42.72147 | 5.31645 | 19467 ft | 395 kts | 185° |
| 2026-04-28 19:06 | 42.69389 | 5.31585 | 19902 ft | 399 kts | 179° |
| 2026-04-28 19:06 | 42.66615 | 5.31975 | 20335 ft | 402 kts | 176° |
| 2026-04-28 19:06 | 42.63827 | 5.32406 | 20776 ft | 404 kts | 176° |
| 2026-04-28 19:07 | 42.61024 | 5.32839 | 21212 ft | 407 kts | 176° |
| 2026-04-28 19:07 | 42.58200 | 5.33271 | 21639 ft | 409 kts | 176° |
| 2026-04-28 19:07 | 42.55364 | 5.33696 | 22076 ft | 411 kts | 176° |
| 2026-04-28 19:07 | 42.52514 | 5.34118 | 22506 ft | 413 kts | 176° |
| 2026-04-28 19:08 | 42.49647 | 5.34542 | 22927 ft | 416 kts | 176° |
| 2026-04-28 19:08 | 42.46764 | 5.34972 | 23320 ft | 419 kts | 176° |
| 2026-04-28 19:08 | 42.43856 | 5.35413 | 23699 ft | 421 kts | 176° |
| 2026-04-28 19:08 | 42.40937 | 5.35856 | 24038 ft | 423 kts | 176° |
| 2026-04-28 19:09 | 42.38003 | 5.36299 | 24383 ft | 426 kts | 176° |
| 2026-04-28 19:09 | 42.35050 | 5.36745 | 24724 ft | 428 kts | 176° |
| 2026-04-28 19:09 | 42.32088 | 5.37194 | 25063 ft | 430 kts | 176° |
| 2026-04-28 19:09 | 42.29111 | 5.37645 | 25403 ft | 432 kts | 176° |
| 2026-04-28 19:10 | 42.26121 | 5.38096 | 25732 ft | 434 kts | 176° |
| 2026-04-28 19:10 | 42.23110 | 5.38545 | 26062 ft | 436 kts | 176° |
| 2026-04-28 19:10 | 42.20129 | 5.38987 | 26384 ft | 438 kts | 176° |
| 2026-04-28 19:10 | 42.17097 | 5.39497 | 26707 ft | 441 kts | 172° |
| 2026-04-28 19:11 | 42.14118 | 5.40542 | 27022 ft | 446 kts | 163° |
| 2026-04-28 19:11 | 42.11222 | 5.42080 | 27319 ft | 449 kts | 160° |
| 2026-04-28 19:11 | 42.08316 | 5.43656 | 27648 ft | 451 kts | 160° |
| 2026-04-28 19:11 | 42.05402 | 5.45233 | 27936 ft | 453 kts | 160° |
| 2026-04-28 19:12 | 42.02469 | 5.46811 | 28224 ft | 454 kts | 160° |
| 2026-04-28 19:12 | 41.99532 | 5.48387 | 28503 ft | 456 kts | 160° |
| 2026-04-28 19:12 | 41.96575 | 5.49969 | 28767 ft | 458 kts | 160° |
| 2026-04-28 19:12 | 41.93610 | 5.51549 | 29015 ft | 459 kts | 160° |
| 2026-04-28 19:13 | 41.90638 | 5.53135 | 29320 ft | 460 kts | 160° |
| 2026-04-28 19:13 | 41.87665 | 5.54716 | 29673 ft | 459 kts | 160° |
| 2026-04-28 19:13 | 41.84704 | 5.56289 | 30024 ft | 458 kts | 160° |
| 2026-04-28 19:13 | 41.81750 | 5.57866 | 30334 ft | 457 kts | 160° |
| 2026-04-28 19:14 | 41.78803 | 5.59443 | 30637 ft | 456 kts | 160° |
| 2026-04-28 19:14 | 41.75858 | 5.61015 | 30946 ft | 455 kts | 160° |
| 2026-04-28 19:14 | 41.72923 | 5.62573 | 31254 ft | 453 kts | 160° |
| 2026-04-28 19:14 | 41.69995 | 5.64126 | 31567 ft | 452 kts | 160° |
| 2026-04-28 19:15 | 41.67074 | 5.65670 | 31867 ft | 451 kts | 160° |
| 2026-04-28 19:15 | 41.64159 | 5.67206 | 32183 ft | 450 kts | 160° |
| 2026-04-28 19:15 | 41.61246 | 5.68738 | 32486 ft | 449 kts | 160° |
| 2026-04-28 19:15 | 41.59325 | 5.69751 | 32692 ft | 448 kts | 160° |
| 2026-04-28 19:16 | 41.55453 | 5.71800 | 33095 ft | 447 kts | 160° |
| 2026-04-28 19:16 | 41.52575 | 5.73325 | 33407 ft | 445 kts | 160° |
| 2026-04-28 19:16 | 41.49695 | 5.74844 | 33721 ft | 444 kts | 160° |
| 2026-04-28 19:16 | 41.46822 | 5.76358 | 34025 ft | 443 kts | 160° |
| 2026-04-28 19:17 | 41.43960 | 5.77862 | 34279 ft | 442 kts | 160° |
| 2026-04-28 19:17 | 41.41101 | 5.79364 | 34509 ft | 442 kts | 160° |
| 2026-04-28 19:17 | 41.38243 | 5.80865 | 34736 ft | 442 kts | 160° |
| 2026-04-28 19:17 | 41.35380 | 5.82366 | 34959 ft | 442 kts | 160° |
| 2026-04-28 19:18 | 41.32522 | 5.83859 | 35174 ft | 441 kts | 160° |
| 2026-04-28 19:18 | 41.29666 | 5.85354 | 35405 ft | 441 kts | 160° |
| 2026-04-28 19:18 | 41.25663 | 5.87455 | 35723 ft | 441 kts | 160° |
| 2026-04-28 19:19 | 41.22808 | 5.88950 | 35939 ft | 441 kts | 160° |
| 2026-04-28 19:19 | 41.19949 | 5.90440 | 36170 ft | 441 kts | 160° |
| 2026-04-28 19:19 | 41.17133 | 5.91907 | 36373 ft | 441 kts | 160° |
| 2026-04-28 19:19 | 41.14244 | 5.93411 | 36590 ft | 440 kts | 160° |
| 2026-04-28 19:20 | 41.11394 | 5.94892 | 36803 ft | 440 kts | 160° |
| 2026-04-28 19:20 | 41.08577 | 5.96352 | 36972 ft | 440 kts | 160° |
| 2026-04-28 19:20 | 41.02864 | 5.99320 | 37014 ft | 442 kts | 160° |
| 2026-04-28 19:21 | 40.97141 | 6.02289 | 37012 ft | 442 kts | 160° |
| 2026-04-28 19:21 | 40.91422 | 6.05248 | 37008 ft | 442 kts | 160° |
| 2026-04-28 19:22 | 40.86625 | 6.07727 | 37004 ft | 442 kts | 160° |
| 2026-04-28 19:22 | 40.79970 | 6.11151 | 37000 ft | 442 kts | 160° |
| 2026-04-28 19:23 | 40.74238 | 6.14100 | 37008 ft | 443 kts | 160° |
| 2026-04-28 19:23 | 40.68856 | 6.18039 | 37017 ft | 447 kts | 143° |
| 2026-04-28 19:24 | 40.63988 | 6.23157 | 37024 ft | 447 kts | 143° |
| 2026-04-28 19:24 | 40.59116 | 6.28251 | 37030 ft | 448 kts | 143° |
| 2026-04-28 19:25 | 40.54222 | 6.33327 | 37034 ft | 448 kts | 144° |
| 2026-04-28 19:25 | 40.49329 | 6.38395 | 37036 ft | 448 kts | 144° |
| 2026-04-28 19:26 | 40.44434 | 6.43474 | 37033 ft | 448 kts | 143° |
| 2026-04-28 19:26 | 40.39543 | 6.48553 | 37028 ft | 449 kts | 143° |
| 2026-04-28 19:27 | 40.34638 | 6.53620 | 37027 ft | 449 kts | 144° |
| 2026-04-28 19:27 | 40.29729 | 6.58675 | 37028 ft | 449 kts | 144° |
| 2026-04-28 19:28 | 40.24850 | 6.63693 | 37024 ft | 449 kts | 144° |
| 2026-04-28 19:28 | 40.19931 | 6.68746 | 37027 ft | 449 kts | 144° |
| 2026-04-28 19:29 | 40.15807 | 6.72976 | 37027 ft | 449 kts | 144° |
| 2026-04-28 19:29 | 40.10092 | 6.78833 | 37026 ft | 449 kts | 144° |
| 2026-04-28 19:30 | 40.05165 | 6.83861 | 37022 ft | 449 kts | 144° |
| 2026-04-28 19:30 | 40.00245 | 6.88885 | 37015 ft | 449 kts | 144° |
| 2026-04-28 19:31 | 39.95318 | 6.93908 | 37017 ft | 449 kts | 144° |
| 2026-04-28 19:31 | 39.90383 | 6.98921 | 37018 ft | 450 kts | 144° |
| 2026-04-28 19:32 | 39.85443 | 7.03929 | 37019 ft | 450 kts | 144° |
| 2026-04-28 19:32 | 39.80501 | 7.08927 | 37011 ft | 450 kts | 144° |
| 2026-04-28 19:33 | 39.75555 | 7.13913 | 37014 ft | 450 kts | 144° |
| 2026-04-28 19:33 | 39.70981 | 7.19493 | 37013 ft | 454 kts | 134° |
| 2026-04-28 19:34 | 39.66793 | 7.25620 | 37013 ft | 454 kts | 134° |
| 2026-04-28 19:34 | 39.62584 | 7.31727 | 37015 ft | 454 kts | 134° |
| 2026-04-28 19:35 | 39.58362 | 7.37827 | 37017 ft | 454 kts | 134° |
| 2026-04-28 19:35 | 39.54144 | 7.43938 | 37012 ft | 455 kts | 134° |
| 2026-04-28 19:36 | 39.49943 | 7.50006 | 37009 ft | 455 kts | 134° |
| 2026-04-28 19:36 | 39.45702 | 7.56100 | 37011 ft | 456 kts | 134° |
| 2026-04-28 19:37 | 39.42144 | 7.61211 | 37007 ft | 456 kts | 134° |
| 2026-04-28 19:37 | 39.37211 | 7.68308 | 37010 ft | 456 kts | 134° |
| 2026-04-28 19:38 | 39.32957 | 7.74395 | 37013 ft | 457 kts | 134° |
| 2026-04-28 19:38 | 39.28694 | 7.80490 | 36998 ft | 458 kts | 135° |
| 2026-04-28 19:39 | 39.24412 | 7.86571 | 37000 ft | 458 kts | 136° |
| 2026-04-28 19:39 | 39.19883 | 7.92338 | 37002 ft | 457 kts | 140° |
| 2026-04-28 19:40 | 39.15200 | 7.97893 | 36999 ft | 457 kts | 140° |
| 2026-04-28 19:40 | 39.10542 | 8.03480 | 37007 ft | 458 kts | 139° |
| 2026-04-28 19:41 | 39.05930 | 8.09137 | 36995 ft | 459 kts | 139° |
| 2026-04-28 19:41 | 39.01314 | 8.14820 | 36990 ft | 460 kts | 140° |
| 2026-04-28 19:42 | 38.96673 | 8.20481 | 36998 ft | 461 kts | 140° |
| 2026-04-28 19:42 | 38.92800 | 8.25187 | 37002 ft | 461 kts | 140° |
| 2026-04-28 19:43 | 38.87357 | 8.31809 | 37011 ft | 462 kts | 140° |
| 2026-04-28 19:43 | 38.82690 | 8.37473 | 37002 ft | 462 kts | 140° |
| 2026-04-28 19:44 | 38.78008 | 8.43131 | 36985 ft | 463 kts | 140° |
| 2026-04-28 19:44 | 38.73316 | 8.48795 | 36988 ft | 464 kts | 140° |
| 2026-04-28 19:45 | 38.68610 | 8.54469 | 36999 ft | 465 kts | 140° |
| 2026-04-28 19:45 | 38.63901 | 8.60140 | 37006 ft | 465 kts | 140° |
| 2026-04-28 19:46 | 38.59185 | 8.65816 | 37013 ft | 466 kts | 140° |
| 2026-04-28 19:46 | 38.54458 | 8.71480 | 36996 ft | 466 kts | 141° |
| 2026-04-28 19:47 | 38.49708 | 8.77138 | 36982 ft | 468 kts | 141° |
| 2026-04-28 19:47 | 38.44979 | 8.82789 | 36988 ft | 469 kts | 141° |
| 2026-04-28 19:48 | 38.40981 | 8.87558 | 36988 ft | 470 kts | 141° |
| 2026-04-28 19:48 | 38.35429 | 8.94164 | 37003 ft | 470 kts | 141° |
| 2026-04-28 19:49 | 38.31419 | 8.98931 | 37012 ft | 471 kts | 141° |
| 2026-04-28 19:49 | 38.26630 | 9.04617 | 36990 ft | 471 kts | 141° |
| 2026-04-28 19:50 | 38.21823 | 9.10306 | 36508 ft | 472 kts | 142° |
| 2026-04-28 19:50 | 38.19412 | 9.13154 | 36266 ft | 473 kts | 142° |
| 2026-04-28 19:50 | 38.17001 | 9.15997 | 36003 ft | 473 kts | 142° |
| 2026-04-28 19:51 | 38.14589 | 9.18845 | 35751 ft | 474 kts | 142° |
| 2026-04-28 19:51 | 38.12174 | 9.21698 | 35508 ft | 475 kts | 141° |
| 2026-04-28 19:51 | 38.09752 | 9.24556 | 35257 ft | 475 kts | 142° |
| 2026-04-28 19:51 | 38.07360 | 9.27370 | 35008 ft | 476 kts | 142° |
| 2026-04-28 19:52 | 38.04932 | 9.30222 | 34772 ft | 476 kts | 142° |
| 2026-04-28 19:52 | 38.02499 | 9.33074 | 34524 ft | 477 kts | 142° |
| 2026-04-28 19:52 | 38.00055 | 9.35938 | 33673 ft | 480 kts | 141° |
| 2026-04-28 19:52 | 37.97592 | 9.38821 | 32716 ft | 483 kts | 141° |
| 2026-04-28 19:53 | 37.95121 | 9.41713 | 31794 ft | 484 kts | 141° |
| 2026-04-28 19:53 | 37.92644 | 9.44612 | 30867 ft | 486 kts | 140° |
| 2026-04-28 19:53 | 37.90150 | 9.47524 | 29749 ft | 488 kts | 140° |
| 2026-04-28 19:53 | 37.87675 | 9.50412 | 28665 ft | 479 kts | 140° |
| 2026-04-28 19:54 | 37.85239 | 9.53259 | 27669 ft | 477 kts | 140° |
| 2026-04-28 19:54 | 37.82820 | 9.56083 | 27083 ft | 470 kts | 140° |
| 2026-04-28 19:54 | 37.80431 | 9.58870 | 26382 ft | 465 kts | 140° |
| 2026-04-28 19:54 | 37.78057 | 9.61633 | 25698 ft | 461 kts | 140° |
| 2026-04-28 19:55 | 37.75704 | 9.64366 | 25057 ft | 458 kts | 140° |
| 2026-04-28 19:55 | 37.73359 | 9.67087 | 24349 ft | 456 kts | 140° |
| 2026-04-28 19:55 | 37.71034 | 9.69782 | 23700 ft | 452 kts | 140° |
| 2026-04-28 19:55 | 37.68729 | 9.72455 | 22964 ft | 448 kts | 140° |
| 2026-04-28 19:56 | 37.66451 | 9.75092 | 22322 ft | 441 kts | 140° |
| 2026-04-28 19:56 | 37.64200 | 9.77693 | 21690 ft | 435 kts | 140° |
| 2026-04-28 19:56 | 37.61981 | 9.80254 | 21055 ft | 430 kts | 140° |
| 2026-04-28 19:56 | 37.59790 | 9.82782 | 20454 ft | 424 kts | 140° |
| 2026-04-28 19:57 | 37.57626 | 9.85276 | 19874 ft | 419 kts | 139° |
| 2026-04-28 19:57 | 37.55488 | 9.87740 | 19317 ft | 414 kts | 139° |
| 2026-04-28 19:57 | 37.53373 | 9.90181 | 18770 ft | 409 kts | 140° |
| 2026-04-28 19:57 | 37.51286 | 9.92588 | 18248 ft | 404 kts | 140° |
| 2026-04-28 19:58 | 37.49228 | 9.94958 | 17679 ft | 398 kts | 140° |
| 2026-04-28 19:58 | 37.47201 | 9.97291 | 17176 ft | 391 kts | 140° |
| 2026-04-28 19:58 | 37.45210 | 9.99581 | 16658 ft | 385 kts | 140° |
| 2026-04-28 19:58 | 37.43250 | 10.01835 | 16135 ft | 379 kts | 140° |
| 2026-04-28 19:59 | 37.41311 | 10.04059 | 15604 ft | 376 kts | 140° |
| 2026-04-28 19:59 | 37.39382 | 10.06267 | 15079 ft | 373 kts | 140° |
| 2026-04-28 19:59 | 37.37496 | 10.08424 | 14532 ft | 370 kts | 140° |
| 2026-04-28 19:59 | 37.35598 | 10.10595 | 13987 ft | 368 kts | 140° |
| 2026-04-28 20:00 | 37.33716 | 10.12753 | 13389 ft | 365 kts | 140° |
| 2026-04-28 20:00 | 37.31848 | 10.14890 | 12826 ft | 362 kts | 140° |
| 2026-04-28 20:00 | 37.29995 | 10.17004 | 12278 ft | 359 kts | 140° |
| 2026-04-28 20:00 | 37.28150 | 10.19102 | 11721 ft | 356 kts | 140° |
| 2026-04-28 20:01 | 37.26324 | 10.21179 | 11182 ft | 353 kts | 139° |
| 2026-04-28 20:01 | 37.24491 | 10.23264 | 10965 ft | 353 kts | 139° |
| 2026-04-28 20:01 | 37.22717 | 10.25286 | 10831 ft | 336 kts | 139° |
| 2026-04-28 20:01 | 37.21028 | 10.27217 | 10708 ft | 321 kts | 140° |
| 2026-04-28 20:02 | 37.19385 | 10.29060 | 10311 ft | 317 kts | 140° |
| 2026-04-28 20:02 | 37.17961 | 10.31098 | 10111 ft | 307 kts | 126° |
| 2026-04-28 20:02 | 37.16808 | 10.33333 | 9765 ft | 304 kts | 123° |
| 2026-04-28 20:02 | 37.15690 | 10.35568 | 9396 ft | 300 kts | 123° |
| 2026-04-28 20:03 | 37.14594 | 10.37779 | 8999 ft | 298 kts | 123° |
| 2026-04-28 20:03 | 37.13508 | 10.39966 | 8638 ft | 294 kts | 124° |
| 2026-04-28 20:03 | 37.12466 | 10.42161 | 8237 ft | 293 kts | 117° |
| 2026-04-28 20:03 | 37.12027 | 10.44621 | 7974 ft | 289 kts | 89° |
| 2026-04-28 20:04 | 37.12511 | 10.47002 | 7850 ft | 279 kts | 61° |
| 2026-04-28 20:04 | 37.13758 | 10.48763 | 7724 ft | 267 kts | 32° |
| 2026-04-28 20:04 | 37.15445 | 10.49550 | 7482 ft | 257 kts | 2° |
| 2026-04-28 20:04 | 37.17167 | 10.49221 | 7129 ft | 249 kts | 331° |
| 2026-04-28 20:05 | 37.18477 | 10.47882 | 6772 ft | 242 kts | 300° |
| 2026-04-28 20:05 | 37.19169 | 10.45993 | 6368 ft | 239 kts | 285° |
| 2026-04-28 20:05 | 37.19675 | 10.44019 | 6115 ft | 234 kts | 283° |
| 2026-04-28 20:05 | 37.20137 | 10.42117 | 5983 ft | 223 kts | 284° |
| 2026-04-28 20:06 | 37.20576 | 10.40299 | 5847 ft | 212 kts | 283° |
| 2026-04-28 20:06 | 37.21003 | 10.38572 | 5724 ft | 202 kts | 283° |
| 2026-04-28 20:06 | 37.21369 | 10.36912 | 5509 ft | 194 kts | 270° |
| 2026-04-28 20:06 | 37.21155 | 10.35299 | 5201 ft | 187 kts | 247° |
| 2026-04-28 20:07 | 37.20680 | 10.33774 | 4874 ft | 188 kts | 244° |
| 2026-04-28 20:07 | 37.20346 | 10.32772 | 4665 ft | 188 kts | 243° |
| 2026-04-28 20:07 | 37.19658 | 10.30760 | 4257 ft | 186 kts | 236° |
| 2026-04-28 20:07 | 37.18739 | 10.29758 | 4083 ft | 178 kts | 199° |
| 2026-04-28 20:08 | 37.17534 | 10.29371 | 4047 ft | 180 kts | 188° |
| 2026-04-28 20:08 | 37.16295 | 10.29601 | 4046 ft | 183 kts | 157° |
| 2026-04-28 20:08 | 37.15105 | 10.30160 | 4047 ft | 182 kts | 167° |
| 2026-04-28 20:08 | 37.13855 | 10.30312 | 4043 ft | 181 kts | 182° |
| 2026-04-28 20:09 | 37.12600 | 10.30140 | 4044 ft | 182 kts | 188° |
| 2026-04-28 20:09 | 37.11371 | 10.29856 | 4038 ft | 182 kts | 191° |
| 2026-04-28 20:09 | 37.10125 | 10.29531 | 4036 ft | 183 kts | 191° |
| 2026-04-28 20:09 | 37.08879 | 10.29194 | 4036 ft | 182 kts | 192° |
| 2026-04-28 20:10 | 37.07643 | 10.28857 | 4002 ft | 183 kts | 192° |
| 2026-04-28 20:10 | 37.06406 | 10.28518 | 3826 ft | 181 kts | 191° |
| 2026-04-28 20:10 | 37.05176 | 10.28181 | 3617 ft | 179 kts | 191° |
| 2026-04-28 20:10 | 37.03961 | 10.27850 | 3388 ft | 179 kts | 191° |
| 2026-04-28 20:11 | 37.02741 | 10.27516 | 3152 ft | 179 kts | 191° |
| 2026-04-28 20:11 | 37.01532 | 10.27185 | 2923 ft | 178 kts | 191° |
| 2026-04-28 20:11 | 37.00331 | 10.26856 | 2703 ft | 176 kts | 190° |
| 2026-04-28 20:11 | 36.99142 | 10.26531 | 2487 ft | 174 kts | 190° |
| 2026-04-28 20:12 | 36.97960 | 10.26208 | 2260 ft | 173 kts | 189° |
| 2026-04-28 20:12 | 36.96786 | 10.25888 | 2031 ft | 172 kts | 189° |
| 2026-04-28 20:12 | 36.95609 | 10.25567 | 1821 ft | 181 kts | 189° |
| 2026-04-28 20:12 | 36.94796 | 10.25344 | 1654 ft | 176 kts | 188° |
| 2026-04-28 20:13 | 36.93303 | 10.24934 | 1338 ft | 152 kts | 188° |
| 2026-04-28 20:13 | 36.92321 | 10.24665 | 1147 ft | 140 kts | 188° |
| 2026-04-28 20:13 | 36.91389 | 10.24412 | 966 ft | 135 kts | 188° |
| 2026-04-28 20:13 | 36.90477 | 10.24165 | 797 ft | 134 kts | 189° |
| 2026-04-28 20:14 | 36.89570 | 10.23914 | 625 ft | 136 kts | 189° |
| 2026-04-28 20:14 | 36.88642 | 10.23656 | 447 ft | 137 kts | 188° |
| 2026-04-28 20:14 | 36.87712 | 10.23408 | 291 ft | 136 kts | 187° |
| 2026-04-28 20:14 | 36.86780 | 10.23159 | 87 ft | 137 kts | 188° |
| 2026-04-28 20:15 | 36.85906 | 10.22925 | 29 ft | 109 kts | 193° |
| 2026-04-28 20:15 | 36.85334 | 10.22764 | 34 ft | 59 kts | 192° |
| 2026-04-28 20:15 | 36.85113 | 10.22703 | 35 ft | 22 kts | 192° |
| 2026-04-28 20:15 | 36.84962 | 10.22661 | 33 ft | 17 kts | 192° |
| 2026-04-28 20:16 | 36.84933 | 10.22583 | 32 ft | 13 kts | 288° |
| 2026-04-28 20:16 | 36.84970 | 10.22480 | 31 ft | 11 kts | 291° |
| 2026-04-28 20:16 | 36.84981 | 10.22411 | 31 ft | 8 kts | 249° |
| 2026-04-28 20:16 | 36.84931 | 10.22375 | 31 ft | 6 kts | 194° |
| 2026-04-28 20:17 | 36.84881 | 10.22360 | 31 ft | 9 kts | 192° |
| 2026-04-28 20:17 | 36.84811 | 10.22341 | 30 ft | 12 kts | 192° |
| 2026-04-28 20:17 | 36.84724 | 10.22318 | 30 ft | 14 kts | 192° |
| 2026-04-28 20:17 | 36.84624 | 10.22291 | 30 ft | 16 kts | 192° |
| 2026-04-28 20:18 | 36.84519 | 10.22263 | 30 ft | 12 kts | 194° |
| 2026-04-28 20:18 | 36.84491 | 10.22209 | 30 ft | 12 kts | 275° |
| 2026-04-28 20:18 | 36.84483 | 10.22067 | 30 ft | 14 kts | 220° |
| 2026-04-28 20:18 | 36.84414 | 10.21979 | 30 ft | 12 kts | 203° |
| 2026-04-28 20:19 | 36.84352 | 10.21957 | 30 ft | 6 kts | 212° |
| 2026-04-28 20:19 | 36.84358 | 10.21917 | 30 ft | 6 kts | 292° |
| 2026-04-28 20:19 | 36.84367 | 10.21870 | 30 ft | 0 kts | 282° |